Map

Track Data

SID SEASON NUMBER BASIN SUBBASIN NAME ISO_TIME NATURE LAT LON WMO_WIND WMO_PRES WMO_AGENCY TRACK_TYPE DIST2LAND LANDFALL IFLAG USA_AGENCY USA_ATCF_ID USA_LAT USA_LON USA_RECORD USA_STATUS USA_WIND USA_PRES USA_SSHS USA_R34_NE USA_R34_SE USA_R34_SW USA_R34_NW USA_R50_NE USA_R50_SE USA_R50_SW USA_R50_NW USA_R64_NE USA_R64_SE USA_R64_SW USA_R64_NW USA_POCI USA_ROCI USA_RMW USA_EYE TOKYO_LAT TOKYO_LON TOKYO_GRADE TOKYO_WIND TOKYO_PRES TOKYO_R50_DIR TOKYO_R50_LONG TOKYO_R50_SHORT TOKYO_R30_DIR TOKYO_R30_LONG TOKYO_R30_SHORT TOKYO_LAND CMA_LAT CMA_LON CMA_CAT CMA_WIND CMA_PRES HKO_LAT HKO_LON HKO_CAT HKO_WIND HKO_PRES NEWDELHI_LAT NEWDELHI_LON NEWDELHI_GRADE NEWDELHI_WIND NEWDELHI_PRES NEWDELHI_CI NEWDELHI_DP NEWDELHI_POCI REUNION_LAT REUNION_LON REUNION_TYPE REUNION_WIND REUNION_PRES REUNION_TNUM REUNION_CI REUNION_RMW REUNION_R34_NE REUNION_R34_SE REUNION_R34_SW REUNION_R34_NW REUNION_R50_NE REUNION_R50_SE REUNION_R50_SW REUNION_R50_NW REUNION_R64_NE REUNION_R64_SE REUNION_R64_SW REUNION_R64_NW BOM_LAT BOM_LON BOM_TYPE BOM_WIND BOM_PRES BOM_TNUM BOM_CI BOM_RMW BOM_R34_NE BOM_R34_SE BOM_R34_SW BOM_R34_NW BOM_R50_NE BOM_R50_SE BOM_R50_SW BOM_R50_NW BOM_R64_NE BOM_R64_SE BOM_R64_SW BOM_R64_NW BOM_ROCI BOM_POCI BOM_EYE BOM_POS_METHOD BOM_PRES_METHOD NADI_LAT NADI_LON NADI_CAT NADI_WIND NADI_PRES WELLINGTON_LAT WELLINGTON_LON WELLINGTON_WIND WELLINGTON_PRES DS824_LAT DS824_LON DS824_STAGE DS824_WIND DS824_PRES TD9636_LAT TD9636_LON TD9636_STAGE TD9636_WIND TD9636_PRES TD9635_LAT TD9635_LON TD9635_WIND TD9635_PRES TD9635_ROCI NEUMANN_LAT NEUMANN_LON NEUMANN_CLASS NEUMANN_WIND NEUMANN_PRES MLC_LAT MLC_LON MLC_CLASS MLC_WIND MLC_PRES USA_GUST BOM_GUST BOM_GUST_PER REUNION_GUST REUNION_GUST_PER USA_SEAHGT USA_SEARAD_NE USA_SEARAD_SE USA_SEARAD_SW USA_SEARAD_NW STORM_SPEED STORM_DIR
1959024S19176 1959 11 SP MM NOT_NAMED 1959-01-24 00:00:00 TS -18.8000 175.500 main 200 184 O________OO___ jtwc_sh SH121959 -18.8000 175.500 -1 -18.8000 175.500 TC 35 -18.8000 175.500 2 11 127
1959024S19176 1959 11 SP MM NOT_NAMED 1959-01-24 03:00:00 TS -19.1208 175.953 main 176 170 P________PP___ SH121959 -19.1253 175.977 -1 -19.1253 175.977 TC 35 -19.1119 175.906 2 10 126
1959024S19176 1959 11 SP MM NOT_NAMED 1959-01-24 06:00:00 TS -19.3929 176.367 main 173 173 O________OP___ jtwc_sh SH121959 -19.4000 176.400 -1 -19.4000 176.400 TC 35 -19.3786 176.300 2 8 122
1959024S19176 1959 11 SP MM NOT_NAMED 1959-01-24 09:00:00 TS -19.5686 176.710 main 179 168 P________PP___ SH121959 -19.5748 176.730 -1 -19.5748 176.730 TC 35 -19.5560 176.670 2 6 109
1959024S19176 1959 11 SP MM NOT_NAMED 1959-01-24 12:00:00 TS -19.6000 177.000 main 168 148 O________OO___ jtwc_sh SH121959 -19.6000 177.000 -1 -19.6000 177.000 TC 35 -19.6000 177.000 2 6 78
1959024S19176 1959 11 SP MM NOT_NAMED 1959-01-24 15:00:00 TS -19.4497 177.288 main 137 109 P________PP___ SH121959 -19.4300 177.295 -1 -19.4300 177.295 TC 35 -19.4891 177.275 2 6 51
1959024S19176 1959 11 SP MM NOT_NAMED 1959-01-24 18:00:00 TS -19.2306 177.489 main 109 94 O________OP___ jtwc_sh SH121959 -19.2000 177.500 -1 -19.2000 177.500 TC 35 -19.2917 177.468 2 5 35
1959024S19176 1959 11 SP MM NOT_NAMED 1959-01-24 21:00:00 TS -19.0594 177.577 main 94 84 P________PP___ SH121959 -19.0398 177.590 -1 -19.0398 177.590 TC 35 -19.0984 177.552 2 2 327
1959024S19176 1959 11 SP MM NOT_NAMED 1959-01-25 00:00:00 TS -19.0615 177.369 main 102 102 O________OO___ jtwc_sh SH121959 -19.0000 177.500 -1 -19.0000 177.500 TC 35 -19.0000 177.500 2 5 247
1959024S19176 1959 11 SP MM NOT_NAMED 1959-01-25 03:00:00 TS -19.2472 177.115 main 123 123 P________PP___ SH121959 -19.1476 177.203 -1 -19.1476 177.203 TC 35 -19.1016 177.259 2 7 226
1959024S19176 1959 11 SP MM NOT_NAMED 1959-01-25 06:00:00 TS -19.5156 176.864 main 162 162 O________OP___ jtwc_sh SH121959 -19.4000 176.800 -1 -19.4000 176.800 TC 35 -19.3086 176.891 2 7 219
1959024S19176 1959 11 SP MM NOT_NAMED 1959-01-25 09:00:00 TS -19.7919 176.646 main 203 203 P________PP___ SH121959 -19.6350 176.428 -1 -19.6350 176.428 TC 35 -19.5862 176.478 2 7 219
1959024S19176 1959 11 SP MM NOT_NAMED 1959-01-25 12:00:00 TS -20.0653 176.392 main 242 242 O________OO___ jtwc_sh SH121959 -19.9000 176.100 -1 -19.9000 176.100 TC 35 -19.9000 176.100 2 7 218
1959024S19176 1959 11 SP MM NOT_NAMED 1959-01-25 15:00:00 TS -20.3460 176.182 main 271 271 P________PP___ SH121959 -20.1849 175.870 -1 -20.1849 175.870 TC 35 -20.1837 175.862 2 7 213
1959024S19176 1959 11 SP MM NOT_NAMED 1959-01-25 18:00:00 TS -20.6493 175.994 main 311 311 O________OP___ jtwc_sh SH121959 -20.5000 175.700 -1 -20.5000 175.700 TC 35 -20.4971 175.675 2 7 209
1959024S19176 1959 11 SP MM NOT_NAMED 1959-01-25 21:00:00 TS -20.9642 175.819 main 360 360 P________PP___ SH121959 -20.8350 175.535 -1 -20.8350 175.535 TC 35 -20.8370 175.525 2 7 206
1959024S19176 1959 11 SP MM NOT_NAMED 1959-01-26 00:00:00 TS -21.3000 175.650 main 395 399 O________OO___ jtwc_sh SH121959 -21.2000 175.400 -1 -21.2000 175.400 TC 35 -21.2000 175.400 2 8 203
1959024S19176 1959 11 SP MM NOT_NAMED 1959-01-26 03:00:00 TS -21.6531 175.500 main 444 444 P________PP___ SH121959 -21.5925 175.292 -1 -21.5925 175.292 TC 35 -21.5865 175.278 2 8 202
1959024S19176 1959 11 SP MM NOT_NAMED 1959-01-26 06:00:00 TS -22.0231 175.344 main 483 483 O________OP___ jtwc_sh SH121959 -22.0000 175.200 -1 -22.0000 175.200 TC 35 -21.9924 175.177 2 8 204
1959024S19176 1959 11 SP MM NOT_NAMED 1959-01-26 09:00:00 TS -22.3942 175.144 main 532 532 P________PP___ SH121959 -22.4075 175.100 -1 -22.4075 175.100 TC 35 -22.4021 175.088 2 8 209
1959024S19176 1959 11 SP MM NOT_NAMED 1959-01-26 12:00:00 TS -22.7602 174.910 main 582 582 O________OO___ jtwc_sh SH121959 -22.8000 175.000 -1 -22.8000 175.000 TC 35 -22.8000 175.000 2 8 212
1959024S19176 1959 11 SP MM NOT_NAMED 1959-01-26 15:00:00 TS -23.0920 174.670 main 621 621 P________PP___ SH121959 -23.1575 174.900 -1 -23.1575 174.900 TC 35 -23.0946 174.974 2 8 214
1959024S19176 1959 11 SP MM NOT_NAMED 1959-01-26 18:00:00 TS -23.4288 174.418 main 664 664 O________OP___ jtwc_sh SH121959 -23.5000 174.800 -1 -23.5000 174.800 TC 35 -23.3862 174.937 2 8 213
1959024S19176 1959 11 SP MM NOT_NAMED 1959-01-26 21:00:00 TS -23.7749 174.180 main 713 713 P________PP___ SH121959 -23.7973 174.752 -1 -23.7973 174.752 TC 35 -23.7347 174.832 2 9 212
1959024S19176 1959 11 SP MM NOT_NAMED 1959-01-27 00:00:00 TS -24.2250 173.875 main 735 718 O________OO___ jtwc_sh SH121959 -24.2000 174.600 -1 -24.2000 174.600 TC 35 -24.2000 174.600 2 13 211
1959024S19176 1959 11 SP MM NOT_NAMED 1959-01-27 03:00:00 TS -24.8811 173.464 main 722 706 P________PP___ SH121959 -24.8248 174.240 -1 -24.8248 174.240 TC 35 -24.8861 174.177 2 17 211
1959024S19176 1959 11 SP MM NOT_NAMED 1959-01-27 06:00:00 TS -25.6574 172.939 main 709 704 O________OP___ jtwc_sh SH121959 -25.6000 173.700 -1 -25.6000 173.700 TC 35 -25.6836 173.620 2 19 213
1959024S19176 1959 11 SP MM NOT_NAMED 1959-01-27 09:00:00 TS -26.4838 172.330 main 712 711 P________PP___ SH121959 -26.4578 173.031 -1 -26.4578 173.031 TC 35 -26.5142 172.977 2 20 215
1959024S19176 1959 11 SP MM NOT_NAMED 1959-01-27 12:00:00 TS -27.2750 171.675 main 730 723 O________OO___ jtwc_sh SH121959 -27.3000 172.300 -1 -27.3000 172.300 TC 35 -27.3000 172.300 2 19 218
1959024S19176 1959 11 SP MM NOT_NAMED 1959-01-27 15:00:00 TS -27.9511 171.056 main 738 698 P________PP___ SH121959 -28.0020 171.642 -1 -28.0020 171.642 TC 35 -27.9992 171.715 2 17 221
1959024S19176 1959 11 SP MM NOT_NAMED 1959-01-27 18:00:00 TS -28.5335 170.451 main 698 660 O________OP___ jtwc_sh SH121959 -28.6000 171.000 -1 -28.6000 171.000 TC 35 -28.6339 171.105 2 15 223
1959024S19176 1959 11 SP MM NOT_NAMED 1959-01-27 21:00:00 TS -29.0474 169.892 main 664 643 P________PP___ SH121959 -29.1663 170.402 -1 -29.1663 170.402 TC 35 -29.1767 170.441 2 14 228
1959024S19176 1959 11 SP MM NOT_NAMED 1959-01-28 00:00:00 TS -29.4372 169.293 main 648 638 O________OO___ jtwc_sh SH121959 -29.6000 169.700 -1 -29.6000 169.700 TC 35 -29.6000 169.700 2 14 243
1959024S19176 1959 11 SP MM NOT_NAMED 1959-01-28 03:00:00 TS -29.6746 168.507 main 659 659 P________PP___ SH121959 -29.8608 168.729 -1 -29.8608 168.729 TC 35 -29.8337 168.660 2 14 255
1959024S19176 1959 11 SP MM NOT_NAMED 1959-01-28 06:00:00 TS -29.8134 167.694 main 697 697 O________OP___ jtwc_sh SH121959 -30.0000 167.700 -1 -30.0000 167.700 TC 35 -29.9536 167.577 2 14 260
1959024S19176 1959 11 SP MM NOT_NAMED 1959-01-28 09:00:00 TS -29.9130 166.933 main 741 741 P________PP___ SH121959 -30.0781 166.692 -1 -30.0781 166.692 TC 35 -30.0454 166.631 2 11 258
1959024S19176 1959 11 SP MM NOT_NAMED 1959-01-28 12:00:00 TS -30.0502 166.414 main 760 753 O________OO___ jtwc_sh SH121959 -30.2000 166.000 -1 -30.2000 166.000 TC 35 -30.2000 166.000 2 7 235
1959024S19176 1959 11 SP MM NOT_NAMED 1959-01-28 15:00:00 TS -30.3003 166.297 main 753 717 P________PP___ SH121959 -30.4888 165.855 -1 -30.4888 165.855 TC 35 -30.4729 165.872 2 6 181
1959024S19176 1959 11 SP MM NOT_NAMED 1959-01-28 18:00:00 TS -30.6831 166.386 main 717 675 O________OP___ jtwc_sh SH121959 -30.9000 166.100 -1 -30.9000 166.100 TC 35 -30.8360 166.074 2 9 161
1959024S19176 1959 11 SP MM NOT_NAMED 1959-01-28 21:00:00 TS -31.1377 166.638 main 675 606 P________PP___ SH121959 -31.3253 166.490 -1 -31.3253 166.490 TC 35 -31.3061 166.489 2 12 153
1959024S19176 1959 11 SP MM NOT_NAMED 1959-01-29 00:00:00 TS -31.7692 167.038 main 601 520 O________OO___ jtwc_sh SH121959 -31.9000 167.000 -1 -31.9000 167.000 TC 35 -31.9000 167.000 2 17 157
1959024S19176 1959 11 SP MM NOT_NAMED 1959-01-29 03:00:00 TS -32.7059 167.408 main 520 452 P________PP___ SH121959 -32.6972 167.436 -1 -32.6972 167.436 TC 35 -32.7232 167.352 2 20 159
1959024S19176 1959 11 SP MM NOT_NAMED 1959-01-29 06:00:00 TS -33.6163 167.862 main 443 393 O________OP___ jtwc_sh SH121959 -33.6000 167.900 -1 -33.6000 167.900 TC 35 -33.6490 167.785 2 20 156
1959024S19176 1959 11 SP MM NOT_NAMED 1959-01-29 09:00:00 TS -34.5280 168.374 main 384 339 P________PP___ SH121959 -34.5168 168.398 -1 -34.5168 168.398 TC 35 -34.5504 168.326 2 19 151
1959024S19176 1959 11 SP MM NOT_NAMED 1959-01-29 12:00:00 TS -35.3000 169.000 main 339 300 O________OO___ jtwc_sh SH121959 -35.3000 169.000 -1 -35.3000 169.000 TC 35 -35.3000 169.000 2 17 139
1959024S19176 1959 11 SP MM NOT_NAMED 1959-01-29 15:00:00 TS -35.8085 169.751 main 292 250 P________PP___ SH121959 -35.8115 169.718 -1 -35.8115 169.718 TC 35 -35.8024 169.818 2 16 121
1959024S19176 1959 11 SP MM NOT_NAMED 1959-01-29 18:00:00 TS -36.0972 170.650 main 242 175 O________OP___ jtwc_sh SH121959 -36.1000 170.600 -1 -36.1000 170.600 TC 35 -36.0917 170.750 2 16 105
1959024S19176 1959 11 SP MM NOT_NAMED 1959-01-29 21:00:00 TS -36.2384 171.687 main 168 104 P________PP___ SH121959 -36.2401 171.652 -1 -36.2401 171.652 TC 35 -36.2349 171.757 2 17 97
1959024S19176 1959 11 SP MM NOT_NAMED 1959-01-30 00:00:00 TS -36.3000 172.800 main 98 O________OO___ jtwc_sh SH121959 -36.3000 172.800 -1 -36.3000 172.800 TC 35 -36.3000 172.800 2 18 94

Digital Typhoon Data and Search

About IBTrACS Database

This database is a web-friendly format of International Best Track Archive for Climate Stewardship (IBTrACS), a global best track data archive curated by NOAA dating back to 1842.

Updated: 2021-12-01